createdAt,value
2022-12-12T00:01:53.688Z,16.13
2022-12-12T00:04:38.713Z,18.77
2022-12-12T00:07:24.021Z,9.63
2022-12-12T00:10:09.742Z,13.05
2022-12-12T00:12:54.892Z,12.80
2022-12-12T00:15:40.275Z,13.27
2022-12-12T00:18:25.604Z,14.18
2022-12-12T00:21:17.642Z,10.88
2022-12-12T00:24:03.713Z,13.57
2022-12-12T00:26:48.774Z,8.95
2022-12-12T00:29:34.390Z,14.20
2022-12-12T00:32:19.844Z,15.38
2022-12-12T00:35:05.422Z,15.77
2022-12-12T00:37:51.412Z,14.68
2022-12-12T00:40:36.868Z,12.45
2022-12-12T00:43:22.010Z,25.52
2022-12-12T00:46:07.835Z,15.82
2022-12-12T00:48:58.363Z,14.90
2022-12-12T00:51:44.914Z,16.17
2022-12-12T00:54:30.436Z,19.77
2022-12-12T00:57:15.786Z,13.10
2022-12-12T01:00:01.396Z,18.20
2022-12-12T01:02:47.593Z,18.23
2022-12-12T01:05:32.686Z,16.50
2022-12-12T01:08:18.361Z,19.33
2022-12-12T01:11:04.219Z,19.20
2022-12-12T01:13:52.430Z,17.20
2022-12-12T01:16:37.655Z,15.00
2022-12-12T01:19:23.001Z,17.70
2022-12-12T01:22:08.542Z,17.95
2022-12-12T01:24:56.867Z,17.83
2022-12-12T01:27:42.334Z,18.42
2022-12-12T01:30:27.998Z,17.95
2022-12-12T01:33:13.330Z,14.75
2022-12-12T01:35:58.981Z,18.45
2022-12-12T01:38:46.044Z,17.70
2022-12-12T01:41:31.617Z,16.88
2022-12-12T01:44:38.742Z,15.55
2022-12-12T01:47:24.437Z,17.92
2022-12-12T01:50:10.416Z,14.50
2022-12-12T01:52:55.928Z,12.20
2022-12-12T01:55:41.765Z,17.88
2022-12-12T01:58:29.253Z,17.95
2022-12-12T02:01:15.633Z,13.25
2022-12-12T02:04:02.149Z,13.70
2022-12-12T02:06:48.995Z,17.67
2022-12-12T02:09:35.745Z,16.42
2022-12-12T02:12:21.192Z,17.80
2022-12-12T02:15:07.018Z,16.13
2022-12-12T02:18:17.886Z,15.90
2022-12-12T02:21:25.002Z,14.13
2022-12-12T02:24:30.710Z,14.48
2022-12-12T02:27:46.226Z,16.67
2022-12-12T02:30:48.535Z,14.57
2022-12-12T02:33:42.421Z,18.67
2022-12-12T02:36:48.605Z,13.70
2022-12-12T02:39:43.732Z,14.90
2022-12-12T02:42:41.110Z,17.08
2022-12-12T02:45:40.595Z,18.08
2022-12-12T02:48:46.118Z,14.25
2022-12-12T02:51:33.269Z,14.35
2022-12-12T02:54:22.656Z,18.58
2022-12-12T02:57:24.014Z,20.30
2022-12-12T03:00:18.216Z,18.30
2022-12-12T03:03:39.689Z,16.13
2022-12-12T03:07:01.401Z,16.58
2022-12-12T03:10:01.211Z,15.13
2022-12-12T03:13:00.624Z,15.80
2022-12-12T03:16:18.992Z,13.55
2022-12-12T03:19:27.129Z,17.15
2022-12-12T03:22:20.765Z,12.45
2022-12-12T03:25:08.698Z,11.77
2022-12-12T03:28:01.993Z,14.85
2022-12-12T03:30:55.191Z,13.15
2022-12-12T03:33:58.227Z,13.88
2022-12-12T03:36:52.157Z,15.45
2022-12-12T03:39:46.492Z,12.70
2022-12-12T03:43:05.206Z,18.13
2022-12-12T03:45:59.410Z,15.35
2022-12-12T03:48:54.913Z,13.30
2022-12-12T03:51:46.391Z,14.73
2022-12-12T03:54:39.780Z,16.13
2022-12-12T03:57:42.822Z,13.00
2022-12-12T04:00:32.001Z,15.20
2022-12-12T04:03:40.977Z,16.52
2022-12-12T04:06:53.782Z,15.88
2022-12-12T04:09:57.597Z,13.30
2022-12-12T04:12:58.984Z,14.23
2022-12-12T04:16:09.912Z,13.77
2022-12-12T04:19:04.593Z,14.00
2022-12-12T04:22:16.817Z,12.60
2022-12-12T04:26:02.036Z,16.27
2022-12-12T04:29:21.026Z,13.38
2022-12-12T04:32:22.460Z,13.55
2022-12-12T04:35:31.801Z,15.48
2022-12-12T04:38:21.830Z,15.35
2022-12-12T04:41:10.295Z,14.05
2022-12-12T04:43:56.661Z,13.50
2022-12-12T04:46:42.612Z,14.88
2022-12-12T04:49:30.404Z,10.90
2022-12-12T04:52:18.657Z,14.07
2022-12-12T04:55:26.965Z,14.73
2022-12-12T04:58:12.377Z,14.63
2022-12-12T05:01:03.613Z,15.75
2022-12-12T05:03:55.409Z,16.27
2022-12-12T05:06:47.495Z,16.48
2022-12-12T05:09:33.863Z,12.35
2022-12-12T05:12:19.134Z,14.05
2022-12-12T05:15:04.808Z,13.52
2022-12-12T05:18:04.900Z,14.13
2022-12-12T05:20:50.685Z,13.43
2022-12-12T05:23:36.037Z,11.98
2022-12-12T05:26:30.268Z,12.57
2022-12-12T05:29:15.719Z,11.32
2022-12-12T05:32:01.069Z,16.67
2022-12-12T05:34:46.702Z,15.50
2022-12-12T05:37:32.142Z,16.55
2022-12-12T05:40:17.985Z,16.75
2022-12-12T05:43:03.225Z,13.82
2022-12-12T05:45:48.815Z,14.05
2022-12-12T05:48:34.621Z,12.95
2022-12-12T05:51:21.248Z,12.43
2022-12-12T05:54:06.622Z,16.77
2022-12-12T05:56:52.270Z,16.42
2022-12-12T05:59:37.449Z,18.92
2022-12-12T06:02:22.943Z,17.75
2022-12-12T06:05:08.925Z,17.02
2022-12-12T06:07:54.348Z,15.20
2022-12-12T06:10:39.755Z,17.08
2022-12-12T06:13:25.020Z,11.52
2022-12-12T06:16:12.831Z,10.27
2022-12-12T06:18:58.301Z,12.90
2022-12-12T06:21:43.641Z,15.38
2022-12-12T06:24:29.061Z,11.95
2022-12-12T06:27:14.370Z,12.30
2022-12-12T06:29:59.870Z,10.00
2022-12-12T06:32:45.325Z,16.23
2022-12-12T06:35:30.702Z,13.18
2022-12-12T06:38:16.137Z,13.25
2022-12-12T06:41:09.435Z,13.18
2022-12-12T06:43:55.404Z,15.02
2022-12-12T06:46:40.463Z,13.65
2022-12-12T06:49:25.893Z,12.95
2022-12-12T06:52:11.420Z,13.05
2022-12-12T06:54:56.837Z,15.35
2022-12-12T06:57:41.978Z,12.75
2022-12-12T07:00:27.455Z,17.23
2022-12-12T07:03:13.518Z,13.00
2022-12-12T07:05:59.126Z,14.55
2022-12-12T07:08:44.837Z,14.43
2022-12-12T07:11:30.035Z,13.32
2022-12-12T07:14:15.453Z,14.32
2022-12-12T07:17:01.326Z,13.00
2022-12-12T07:19:46.401Z,12.95
2022-12-12T07:22:31.788Z,14.60
2022-12-12T07:25:17.204Z,15.02
2022-12-12T07:28:02.662Z,15.48
2022-12-12T07:30:48.507Z,17.83
2022-12-12T07:33:43.063Z,17.25
2022-12-12T07:36:29.308Z,16.10
2022-12-12T07:39:20.366Z,14.25
2022-12-12T07:42:06.227Z,14.57
2022-12-12T07:44:51.457Z,17.90
2022-12-12T07:47:37.936Z,20.17
2022-12-12T07:50:23.658Z,20.60
2022-12-12T07:53:08.795Z,19.83
2022-12-12T07:55:54.836Z,19.20
2022-12-12T07:58:40.252Z,18.63
2022-12-12T08:01:27.229Z,16.58
2022-12-12T08:04:12.601Z,13.90
2022-12-12T08:07:03.930Z,16.52
2022-12-12T08:09:52.437Z,18.75
2022-12-12T08:12:37.668Z,19.70
2022-12-12T08:15:23.879Z,17.05
2022-12-12T08:18:09.344Z,17.15
2022-12-12T08:20:54.776Z,17.60
2022-12-12T08:23:41.168Z,12.93
2022-12-12T08:26:27.416Z,24.70
2022-12-12T08:29:12.853Z,17.27
2022-12-12T08:31:58.401Z,20.75
2022-12-12T08:34:43.593Z,20.60
2022-12-12T08:37:28.947Z,28.85
2022-12-12T08:40:14.224Z,30.67
2022-12-12T08:42:59.730Z,24.38
2022-12-12T08:45:46.053Z,26.63
2022-12-12T08:48:31.327Z,27.80
2022-12-12T08:51:17.729Z,29.38
2022-12-12T08:54:02.716Z,23.02
2022-12-12T08:56:48.341Z,28.35
2022-12-12T08:59:33.585Z,21.73
2022-12-12T09:02:19.132Z,20.88
2022-12-12T09:05:04.936Z,21.02
2022-12-12T09:07:50.592Z,21.42
2022-12-12T09:10:36.055Z,20.65
2022-12-12T09:13:21.310Z,34.30
2022-12-12T09:16:08.374Z,46.08
2022-12-12T09:18:53.433Z,46.40
2022-12-12T09:21:38.737Z,40.05
2022-12-12T09:24:25.474Z,48.30
2022-12-12T09:27:10.819Z,32.17
2022-12-12T09:29:56.170Z,30.45
2022-12-12T09:32:42.186Z,33.67
2022-12-12T09:35:27.422Z,28.65
2022-12-12T09:38:14.863Z,31.02
2022-12-12T09:41:03.169Z,26.63
2022-12-12T09:44:02.922Z,30.17
2022-12-12T09:46:55.536Z,33.85
2022-12-12T09:49:50.949Z,30.38
2022-12-12T09:52:37.584Z,29.05
2022-12-12T09:56:07.244Z,31.83
2022-12-12T09:59:02.400Z,29.33
2022-12-12T10:02:13.180Z,32.00
2022-12-12T10:05:03.874Z,27.98
2022-12-12T10:07:56.269Z,26.98
2022-12-12T10:10:48.343Z,26.63
2022-12-12T10:13:35.403Z,26.15
2022-12-12T10:16:20.944Z,25.85
2022-12-12T10:19:24.592Z,26.58
2022-12-12T10:22:24.466Z,20.38
2022-12-12T10:25:20.208Z,21.48
2022-12-12T10:28:14.736Z,22.75
2022-12-12T10:31:31.138Z,18.58
2022-12-12T10:34:53.111Z,18.58
2022-12-12T10:38:18.164Z,20.33
2022-12-12T10:41:18.408Z,18.52
2022-12-12T10:44:15.641Z,18.60
2022-12-12T10:47:08.796Z,15.65
2022-12-12T10:50:02.258Z,14.68
2022-12-12T10:52:48.407Z,14.85
2022-12-12T10:55:53.578Z,14.32
2022-12-12T10:58:44.248Z,16.38
2022-12-12T11:02:09.017Z,15.07
2022-12-12T11:04:45.245Z,14.98
2022-12-12T11:07:31.608Z,16.73
2022-12-12T11:10:36.645Z,16.65
2022-12-12T11:13:21.726Z,18.73
2022-12-12T11:16:13.890Z,13.82
2022-12-12T11:19:05.197Z,13.70
2022-12-12T11:21:51.634Z,13.70
2022-12-12T11:24:46.237Z,15.00
2022-12-12T11:27:41.391Z,10.98
2022-12-12T11:30:43.632Z,11.52
2022-12-12T11:33:39.746Z,11.38
2022-12-12T11:36:43.123Z,14.00
2022-12-12T11:39:35.819Z,11.10
2022-12-12T11:42:30.213Z,10.13
2022-12-12T11:45:16.406Z,13.02
2022-12-12T11:48:02.073Z,13.52
2022-12-12T11:50:47.332Z,14.25
2022-12-12T11:53:43.285Z,9.55
2022-12-12T11:56:38.777Z,11.75
2022-12-12T11:59:46.103Z,14.07
2022-12-12T12:02:46.307Z,11.98
2022-12-12T12:05:43.536Z,13.73
2022-12-12T12:08:42.989Z,12.20
2022-12-12T12:11:30.797Z,10.07
2022-12-12T12:14:37.253Z,13.95
2022-12-12T12:17:35.345Z,11.32
2022-12-12T12:20:45.741Z,11.52
2022-12-12T12:23:50.662Z,15.88
2022-12-12T12:26:54.839Z,10.70
2022-12-12T12:30:11.778Z,14.38
2022-12-12T12:33:12.337Z,14.20
2022-12-12T12:36:23.425Z,12.98
2022-12-12T12:39:45.077Z,12.25
2022-12-12T12:42:46.214Z,12.60
2022-12-12T12:45:45.540Z,14.48
2022-12-12T12:48:37.066Z,11.27
2022-12-12T12:51:37.093Z,16.42
2022-12-12T12:54:48.170Z,13.82
2022-12-12T12:57:39.995Z,14.30
2022-12-12T13:00:28.745Z,10.30
2022-12-12T13:03:18.999Z,12.60
2022-12-12T13:06:12.706Z,13.30
2022-12-12T13:09:15.474Z,13.63
2022-12-12T13:12:16.378Z,18.83
2022-12-12T13:15:14.331Z,11.38
2022-12-12T13:18:06.453Z,13.20
2022-12-12T13:21:22.505Z,12.13
2022-12-12T13:24:20.829Z,11.32
2022-12-12T13:27:14.979Z,11.90
2022-12-12T13:30:06.253Z,12.50
2022-12-12T13:32:57.257Z,11.18
2022-12-12T13:35:48.541Z,16.25
2022-12-12T13:38:35.747Z,12.18
2022-12-12T13:41:21.484Z,14.82
2022-12-12T13:44:06.660Z,11.75
2022-12-12T13:46:52.085Z,17.45
2022-12-12T13:49:53.772Z,13.75
2022-12-12T13:52:42.136Z,12.43
2022-12-12T13:55:27.454Z,16.13
2022-12-12T13:58:31.313Z,14.27
2022-12-12T14:01:39.199Z,13.45
2022-12-12T14:04:34.658Z,15.07
2022-12-12T14:07:23.268Z,13.23
2022-12-12T14:10:30.633Z,20.50
2022-12-12T14:13:21.821Z,11.30
2022-12-12T14:16:19.816Z,15.98
2022-12-12T14:19:08.446Z,13.40
2022-12-12T14:21:53.729Z,12.32
2022-12-12T14:24:47.862Z,11.43
2022-12-12T14:27:49.193Z,12.95
2022-12-12T14:30:48.598Z,14.13
2022-12-12T14:33:52.581Z,14.52
2022-12-12T14:37:09.880Z,14.45
2022-12-12T14:40:11.110Z,12.43
2022-12-12T14:43:19.724Z,12.88
2022-12-12T14:46:17.613Z,12.77
2022-12-12T14:49:04.457Z,11.43
2022-12-12T14:51:56.825Z,11.23
2022-12-12T14:54:42.259Z,11.98
2022-12-12T14:57:28.429Z,11.27
2022-12-12T15:00:20.220Z,9.20
2022-12-12T15:03:06.393Z,10.13
2022-12-12T15:06:29.497Z,10.88
2022-12-12T15:09:27.202Z,10.20
2022-12-12T15:12:18.629Z,8.50
2022-12-12T15:15:05.188Z,12.32
2022-12-12T15:17:51.515Z,13.07
2022-12-12T15:20:37.081Z,11.73
2022-12-12T15:23:23.128Z,14.23
2022-12-12T15:26:19.789Z,15.85
2022-12-12T15:29:04.899Z,13.32
2022-12-12T15:31:57.231Z,13.48
2022-12-12T15:34:46.086Z,17.52
2022-12-12T15:37:37.610Z,18.98
2022-12-12T15:40:34.036Z,13.25
2022-12-12T15:43:25.820Z,14.10
2022-12-12T15:46:14.862Z,14.57
2022-12-12T15:49:00.202Z,12.85
2022-12-12T15:51:45.720Z,12.63
2022-12-12T15:54:31.111Z,10.88
2022-12-12T15:57:23.830Z,11.55
2022-12-12T16:00:22.983Z,14.43
2022-12-12T16:03:11.247Z,10.27
2022-12-12T16:06:03.230Z,12.30
2022-12-12T16:08:59.120Z,14.17
2022-12-12T16:11:47.117Z,14.23
2022-12-12T16:14:42.102Z,11.15
2022-12-12T16:17:29.148Z,13.05
2022-12-12T16:20:14.881Z,11.57
2022-12-12T16:23:28.729Z,14.02
2022-12-12T16:26:13.964Z,11.85
2022-12-12T16:28:59.302Z,10.77
2022-12-12T16:31:45.782Z,12.63
2022-12-12T16:34:31.591Z,10.23
2022-12-12T16:37:18.643Z,9.75
2022-12-12T16:40:04.108Z,11.57
2022-12-12T16:43:07.775Z,13.38
2022-12-12T16:45:56.370Z,12.82
2022-12-12T16:48:41.700Z,12.25
2022-12-12T16:51:29.258Z,12.20
2022-12-12T16:54:19.488Z,8.57
2022-12-12T16:57:04.595Z,10.05
2022-12-12T16:59:50.131Z,9.43
2022-12-12T17:02:36.290Z,10.55
2022-12-12T17:05:24.304Z,8.20
2022-12-12T17:08:10.395Z,11.13
2022-12-12T17:11:09.254Z,11.43
2022-12-12T17:13:56.183Z,9.05
2022-12-12T17:16:41.526Z,14.05
2022-12-12T17:19:26.843Z,10.63
2022-12-12T17:22:12.226Z,9.90
2022-12-12T17:24:57.480Z,13.95
2022-12-12T17:27:43.114Z,9.00
2022-12-12T17:30:28.491Z,14.38
2022-12-12T17:33:19.490Z,11.32
2022-12-12T17:36:06.477Z,14.73
2022-12-12T17:38:51.788Z,12.32
2022-12-12T17:41:37.045Z,12.43
2022-12-12T17:44:23.730Z,9.55
2022-12-12T17:47:09.099Z,12.00
2022-12-12T17:49:54.294Z,13.75
2022-12-12T17:52:39.622Z,11.18
2022-12-12T17:55:53.271Z,28.55
2022-12-12T17:58:34.932Z,21.58
2022-12-12T18:01:26.409Z,14.30
2022-12-12T18:04:12.220Z,16.73
2022-12-12T18:06:57.610Z,12.70
2022-12-12T18:09:43.075Z,13.05
2022-12-12T18:12:28.550Z,10.82
2022-12-12T18:15:13.943Z,15.23
2022-12-12T18:17:59.429Z,10.95
2022-12-12T18:20:44.865Z,13.00
2022-12-12T18:23:30.276Z,14.38
2022-12-12T18:26:22.136Z,16.30
2022-12-12T18:29:08.328Z,14.48
2022-12-12T18:31:54.313Z,12.90
2022-12-12T18:34:39.862Z,16.30
2022-12-12T18:37:24.896Z,21.75
2022-12-12T18:40:10.660Z,23.70
2022-12-12T18:42:56.525Z,30.08
2022-12-12T18:45:41.667Z,27.05
2022-12-12T18:48:27.012Z,16.20
2022-12-12T18:51:19.744Z,11.27
2022-12-12T18:54:10.963Z,11.88
2022-12-12T18:56:59.873Z,10.48
2022-12-12T18:59:45.110Z,9.20
2022-12-12T19:02:30.626Z,10.95
2022-12-12T19:05:16.342Z,14.38
2022-12-12T19:08:01.529Z,12.32
2022-12-12T19:10:46.949Z,15.93
2022-12-12T19:13:32.625Z,12.93
2022-12-12T19:16:20.159Z,15.00
2022-12-12T19:19:06.350Z,16.77
2022-12-12T19:21:52.378Z,21.90
2022-12-12T19:24:40.929Z,26.55
2022-12-12T19:27:26.396Z,28.20
2022-12-12T19:30:13.554Z,23.73
2022-12-12T19:32:59.066Z,24.90
2022-12-12T19:35:44.633Z,24.92
2022-12-12T19:38:30.751Z,20.25
2022-12-12T19:41:17.841Z,21.48
2022-12-12T19:44:04.656Z,20.10
2022-12-12T19:46:50.124Z,12.00
2022-12-12T19:49:35.627Z,15.52
2022-12-12T19:52:21.052Z,15.82
2022-12-12T19:55:06.912Z,12.40
2022-12-12T19:57:52.268Z,12.98
2022-12-12T20:00:37.737Z,14.68
2022-12-12T20:03:23.128Z,12.73
2022-12-12T20:06:10.362Z,11.88
2022-12-12T20:08:58.960Z,12.32
2022-12-12T20:11:45.368Z,13.70
2022-12-12T20:14:32.741Z,10.25
2022-12-12T20:17:17.792Z,13.90
2022-12-12T20:20:04.362Z,11.43
2022-12-12T20:22:49.693Z,10.70
2022-12-12T20:25:35.084Z,8.63
2022-12-12T20:28:20.418Z,10.77
2022-12-12T20:31:11.800Z,7.88
2022-12-12T20:33:58.420Z,8.38
2022-12-12T20:36:44.650Z,10.07
2022-12-12T20:39:29.825Z,15.18
2022-12-12T20:42:15.302Z,14.07
2022-12-12T20:45:01.845Z,17.15
2022-12-12T20:47:47.001Z,27.90
2022-12-12T20:50:32.502Z,20.88
2022-12-12T20:53:17.786Z,16.95
2022-12-12T20:56:11.034Z,15.23
2022-12-12T20:58:59.770Z,14.23
2022-12-12T21:01:47.075Z,10.73
2022-12-12T21:04:32.425Z,12.95
2022-12-12T21:07:17.812Z,18.05
2022-12-12T21:10:03.627Z,10.27
2022-12-12T21:12:48.663Z,9.50
2022-12-12T21:15:35.689Z,11.68
2022-12-12T21:18:21.282Z,8.93
2022-12-12T21:21:10.697Z,8.93
2022-12-12T21:23:56.546Z,7.20
2022-12-12T21:26:42.532Z,6.95
2022-12-12T21:29:27.914Z,8.90
2022-12-12T21:32:13.295Z,7.18
2022-12-12T21:34:58.632Z,10.18
2022-12-12T21:37:43.956Z,8.80
2022-12-12T21:40:29.520Z,13.13
2022-12-12T21:43:14.805Z,9.65
2022-12-12T21:46:03.464Z,10.43
2022-12-12T21:49:07.877Z,10.95
2022-12-12T21:51:55.434Z,8.77
2022-12-12T21:54:41.006Z,10.85
2022-12-12T21:57:26.534Z,17.27
2022-12-12T22:00:12.225Z,16.58
2022-12-12T22:02:57.641Z,25.08
2022-12-12T22:05:42.789Z,17.13
2022-12-12T22:08:28.227Z,15.63
2022-12-12T22:11:33.809Z,15.48
2022-12-12T22:14:21.517Z,16.90
2022-12-12T22:17:06.568Z,10.60
2022-12-12T22:19:51.941Z,11.77
2022-12-12T22:22:37.191Z,12.10
2022-12-12T22:25:22.709Z,9.25
2022-12-12T22:28:07.965Z,10.75
2022-12-12T22:30:53.450Z,9.40
2022-12-12T22:33:39.282Z,10.55
2022-12-12T22:36:26.690Z,10.13
2022-12-12T22:39:18.243Z,7.75
2022-12-12T22:42:03.572Z,7.25
2022-12-12T22:44:48.963Z,8.65
2022-12-12T22:47:34.581Z,10.27
2022-12-12T22:50:19.982Z,8.73
2022-12-12T22:53:05.343Z,10.52
2022-12-12T22:55:50.726Z,13.80
2022-12-12T22:58:35.957Z,10.30
2022-12-12T23:01:22.929Z,8.57
2022-12-12T23:04:09.711Z,10.57
2022-12-12T23:06:55.094Z,10.02
2022-12-12T23:09:52.197Z,13.07
2022-12-12T23:12:39.888Z,16.02
2022-12-12T23:15:25.245Z,11.32
2022-12-12T23:18:10.633Z,12.85
2022-12-12T23:20:55.862Z,12.95
2022-12-12T23:23:41.229Z,14.15
2022-12-12T23:26:30.162Z,13.88
2022-12-12T23:29:16.885Z,12.00
2022-12-12T23:32:03.061Z,11.43
2022-12-12T23:34:48.607Z,12.95
2022-12-12T23:37:33.961Z,21.35
2022-12-12T23:40:19.342Z,16.05
2022-12-12T23:43:04.611Z,13.05
2022-12-12T23:45:50.031Z,12.80
2022-12-12T23:48:35.407Z,9.80
2022-12-12T23:51:20.975Z,11.95
2022-12-12T23:54:10.370Z,13.18
2022-12-12T23:56:55.911Z,8.52
2022-12-12T23:59:41.981Z,9.00
